Flight Track Log - Related Links

Times and Time Zones

All times are in EDT time to prevent confusion due to time zone crossing. See the UPS1057 flight status page for this flight to view local times or setup timezone preferences in your user account.


Time Position Orientation Groundspeed Altitude Reporting Facility
EDT Latitude Longitude Course Direction KTS MPH feet Rate Location/Type
Wed 09:32:37 PM 42.9590 -71.4200 19° North 155 178 1,800  Level FlightAware ADS-B
Wed 09:33:02 PM 42.9790 -71.4110 18° North 189 217 2,400 1,418 Climbing FlightAware ADS-B
Wed 09:33:32 PM 43.0080 -71.3980 18° North 241 277 3,100 1,745 Climbing FlightAware ADS-B
Wed 09:33:57 PM 43.0370 -71.3850 18° North 276 318 4,000 2,550 Climbing FlightAware ADS-B
Wed 09:34:12 PM 43.0560 -71.3850 360° North 277 319 4,800 3,400 Climbing FlightAware ADS-B
Wed 09:34:27 PM 43.0750 -71.3950 339° North 290 334 5,700 3,800 Climbing FlightAware ADS-B
Wed 09:34:42 PM 43.0900 -71.4170 313° West 284 327 6,700 3,467 Climbing FlightAware ADS-B
Wed 09:35:12 PM 43.1140 -71.4570 309° West 296 341 8,300 3,300 Climbing FlightAware ADS-B
Wed 09:35:22 PM 43.1220 -71.4750 301° West 298 343 8,900 3,360 Climbing FlightAware ADS-B
Wed 09:35:37 PM 43.1280 -71.5020 287° West 295 339 9,700 2,291 Climbing FlightAware ADS-B
Wed 09:36:17 PM 43.1260 -71.5780 268° West 334 384 11,000 1,694 Climbing FlightAware ADS-B
Wed 09:37:02 PM 43.1180 -71.6810 264° West 385 443 12,100 2,188 Climbing FlightAware ADS-B
Wed 09:37:42 PM 43.1120 -71.7820 265° West 395 455 14,100 2,824 Climbing FlightAware ADS-B
Wed 09:38:27 PM 43.1040 -71.8940 264° West 406 467 16,100 2,541 Climbing FlightAware ADS-B
Wed 09:39:07 PM 43.0950 -71.9940 263° West 412 474 17,700 2,471 Climbing FlightAware ADS-B
Wed 09:39:52 PM 43.0720 -72.1110 255° West 415 478 19,600 2,175 Climbing FlightAware ADS-B
Wed 09:40:27 PM 43.0550 -72.1960 255° West 425 489 20,600 2,100 Climbing FlightAware ADS-B
Wed 09:41:12 PM 43.0290 -72.3290 255° West 425 489 22,400 1,600 Climbing FlightAware ADS-B
Wed 09:41:57 PM 43.0230 -72.4540 266° West 435 501 23,000 494 Climbing FlightAware ADS-B
Wed 09:42:37 PM 43.0200 -72.5680 268° West 460 529 23,100 640 Climbing FlightAware ADS-B
Wed 09:43:12 PM 43.0170 -72.6530 267° West 468 539 23,800 1,482 Climbing FlightAware ADS-B
Wed 09:44:02 PM 43.0130 -72.8080 268° West 480 552 25,200 1,694 Climbing FlightAware ADS-B
Wed 09:44:37 PM 43.0090 -72.9210 267° West 486 559 26,200 1,800 Climbing FlightAware ADS-B
Wed 09:45:22 PM 43.0040 -73.0590 267° West 486 559 27,600 1,484 Climbing FlightAware ADS-B
Wed 09:45:52 PM 43.0080 -72.9490 87° East 28,400 1,366 Climbing FlightAware ADS-B
Wed 09:47:47 PM 42.9330 -73.4760 259° West 470 541 30,900 1,406 Climbing FlightAware ADS-B
Wed 09:48:22 PM 43.0000 -73.1570 74° East 32,100 1,600 Climbing FlightAware ADS-B
Wed 09:48:47 PM 42.8730 -73.6050 249° West 466 536 32,500 343 Climbing FlightAware ADS-B
Wed 09:49:32 PM 42.8240 -73.7080 237° Southwest 466 536 32,500  Level FlightAware ADS-B
Wed 09:50:12 PM 42.7850 -73.7920 238° Southwest 466 536 32,500  Level FlightAware ADS-B
Wed 09:51:02 PM 42.7350 -73.8960 237° Southwest 466 536 32,500  Level FlightAware ADS-B
Wed 09:51:42 PM 42.6950 -73.9800 237° Southwest 466 536 32,500  Level FlightAware ADS-B
Wed 09:52:22 PM 42.6550 -74.0640 237° Southwest 466 536 32,500  Level FlightAware ADS-B
Wed 09:53:02 PM 42.6150 -74.1470 237° Southwest 466 536 32,500  Level FlightAware ADS-B
Wed 09:53:42 PM 42.5750 -74.2310 237° Southwest 466 536 32,500  Level FlightAware ADS-B
Wed 09:54:32 PM 42.5250 -74.3350 237° Southwest 466 536 32,500  Level FlightAware ADS-B
Wed 09:55:12 PM 42.4850 -74.4180 237° Southwest 466 536 32,500  Level FlightAware ADS-B
Wed 09:55:52 PM 42.4450 -74.5020 237° Southwest 466 536 32,500 900 Level FlightAware ADS-B
Wed 09:56:52 PM 42.3120 -74.7990 239° Southwest 455 524 34,000 900 Climbing FlightAware ADS-B
Wed 09:57:32 PM 42.2680 -74.8910 237° Southwest 458 527 34,000  Level FlightAware ADS-B
Wed 09:58:17 PM 42.2160 -74.9990 237° Southwest 460 529 34,000  Level FlightAware ADS-B
Wed 09:58:57 PM 42.1630 -75.1120 238° Southwest 453 521 34,000  Level FlightAware ADS-B
Wed 09:59:37 PM 42.1170 -75.2070 237° Southwest 455 524 34,000  Level FlightAware ADS-B
Wed 10:00:22 PM 42.0670 -75.3080 236° Southwest 455 524 34,000  Level FlightAware ADS-B
Wed 10:00:57 PM 42.0280 -75.3990 240° Southwest 456 525 34,000  Level FlightAware ADS-B
Wed 10:01:42 PM 41.9880 -75.4960 241° Southwest 456 525 34,000  Level FlightAware ADS-B
Wed 10:02:42 PM 41.9300 -75.6410 242° Southwest 454 522 34,000  Level FlightAware ADS-B
Wed 10:03:37 PM 41.8720 -75.7770 240° Southwest 456 525 34,000  Level FlightAware ADS-B
Wed 10:04:17 PM 41.8330 -75.8720 241° Southwest 461 531 34,000  Level FlightAware ADS-B
Wed 10:05:02 PM 41.7820 -75.9920 240° Southwest 465 535 34,000  Level FlightAware ADS-B
Wed 10:05:42 PM 41.7370 -76.1000 241° Southwest 465 535 34,000  Level FlightAware ADS-B
Wed 10:06:27 PM 41.6880 -76.2150 240° Southwest 464 534 34,000  Level FlightAware ADS-B
Wed 10:07:07 PM 41.6450 -76.3200 241° Southwest 462 532 34,000  Level FlightAware ADS-B
Wed 10:07:47 PM 41.6030 -76.4170 240° Southwest 461 531 34,000  Level FlightAware ADS-B
Wed 10:08:32 PM 41.5570 -76.5260 241° Southwest 464 534 34,000  Level FlightAware ADS-B
Wed 10:09:12 PM 41.5200 -76.6120 240° Southwest 459 528 34,000  Level FlightAware ADS-B
Wed 10:09:57 PM 41.4740 -76.7210 241° Southwest 460 529 34,000  Level FlightAware ADS-B
Wed 10:10:37 PM 41.4300 -76.8220 240° Southwest 463 533 34,000  Level FlightAware ADS-B
Wed 10:11:22 PM 41.3820 -76.9330 240° Southwest 460 529 34,000  Level FlightAware ADS-B
Wed 10:12:02 PM 41.3410 -77.0280 240° Southwest 454 522 34,000  Level FlightAware ADS-B
Wed 10:12:42 PM 41.2970 -77.1300 240° Southwest 457 526 34,000  Level FlightAware ADS-B
Wed 10:13:27 PM 41.2490 -77.2400 240° Southwest 459 528 34,000  Level FlightAware ADS-B
Wed 10:14:07 PM 41.2080 -77.3320 239° Southwest 460 529 34,000  Level FlightAware ADS-B
Wed 10:14:52 PM 41.1590 -77.4450 240° Southwest 460 529 34,000  Level FlightAware ADS-B
Wed 10:15:32 PM 41.1200 -77.5350 240° Southwest 461 531 34,000  Level FlightAware ADS-B
Wed 10:16:12 PM 41.0730 -77.6400 239° Southwest 462 532 34,000  Level FlightAware ADS-B
Wed 10:16:57 PM 41.0240 -77.7520 240° Southwest 463 533 34,000  Level FlightAware ADS-B
Wed 10:17:37 PM 40.9800 -77.8480 239° Southwest 464 534 34,000  Level FlightAware ADS-B
Wed 10:18:22 PM 40.9350 -77.9600 242° Southwest 467 537 34,000  Level FlightAware ADS-B
Wed 10:19:02 PM 40.9050 -78.0700 250° West 466 536 34,000  Level FlightAware ADS-B
Wed 10:19:47 PM 40.8860 -78.1930 258° West 467 537 34,000  Level FlightAware ADS-B
Wed 10:20:27 PM 40.8700 -78.3080 260° West 470 541 34,000  Level FlightAware ADS-B
Wed 10:21:17 PM 40.8490 -78.4490 259° West 467 537 34,000  Level FlightAware ADS-B
Wed 10:22:07 PM 40.8290 -78.5860 259° West 465 535 34,000  Level FlightAware ADS-B
Wed 10:22:47 PM 40.8120 -78.6980 259° West 471 542 34,000  Level FlightAware ADS-B
Wed 10:23:32 PM 40.7920 -78.8270 258° West 473 544 34,000  Level FlightAware ADS-B
Wed 10:24:12 PM 40.7750 -78.9400 259° West 470 541 34,000  Level FlightAware ADS-B
Wed 10:24:47 PM 40.7600 -79.0380 259° West 465 535 34,000  Level FlightAware ADS-B
Wed 10:25:37 PM 40.7390 -79.1760 259° West 462 532 34,000  Level FlightAware ADS-B
Wed 10:26:17 PM 40.7220 -79.2840 258° West 463 533 34,000  Level FlightAware ADS-B
Wed 10:27:02 PM 40.7030 -79.4040 258° West 459 528 34,000  Level FlightAware ADS-B
Wed 10:27:57 PM 40.6780 -79.5570 258° West 459 528 34,000  Level FlightAware ADS-B
Wed 10:28:37 PM 40.6450 -79.6760 250° West 463 533 34,000  Level FlightAware ADS-B
Wed 10:29:22 PM 40.6090 -79.8000 249° West 467 537 34,000  Level FlightAware ADS-B
Wed 10:30:02 PM 40.5770 -79.9060 248° West 467 537 34,000  Level FlightAware ADS-B
Wed 10:30:42 PM 40.5470 -80.0080 249° West 461 531 34,000  Level FlightAware ADS-B
Wed 10:31:27 PM 40.5130 -80.1230 249° West 460 529 34,000  Level FlightAware ADS-B
Wed 10:32:07 PM 40.4810 -80.2290 248° West 461 531 34,000  Level FlightAware ADS-B
Wed 10:32:52 PM 40.4450 -80.3470 248° West 462 532 34,000  Level FlightAware ADS-B
Wed 10:33:32 PM 40.4130 -80.4540 249° West 462 532 34,000  Level FlightAware ADS-B
Wed 10:34:17 PM 40.3770 -80.5700 248° West 460 529 34,000  Level FlightAware ADS-B
Wed 10:34:57 PM 40.3460 -80.6710 248° West 458 527 34,000  Level FlightAware ADS-B
Wed 10:35:37 PM 40.3150 -80.7740 248° West 456 525 34,000  Level FlightAware ADS-B
Wed 10:36:22 PM 40.2790 -80.8920 248° West 455 524 34,000  Level FlightAware ADS-B
Wed 10:37:02 PM 40.2490 -80.9890 248° West 454 522 34,000  Level FlightAware ADS-B
Wed 10:37:47 PM 40.2120 -81.1060 248° West 456 525 34,000  Level FlightAware ADS-B
Wed 10:38:27 PM 40.1800 -81.2090 248° West 456 525 34,000  Level FlightAware ADS-B
Wed 10:39:07 PM 40.1480 -81.3100 248° West 455 524 34,000  Level FlightAware ADS-B
Wed 10:39:52 PM 40.1130 -81.4220 248° West 455 524 34,000  Level FlightAware ADS-B
Wed 10:40:32 PM 40.0800 -81.5280 248° West 442 509 34,000  Level FlightAware ADS-B
Wed 10:41:12 PM 40.0500 -81.6230 248° West 434 499 34,000  Level FlightAware ADS-B
Wed 10:41:57 PM 40.0150 -81.7310 247° West 432 497 34,000  Level FlightAware ADS-B
Wed 10:42:37 PM 39.9850 -81.8280 248° West 437 503 34,000  Level FlightAware ADS-B
Wed 10:43:22 PM 39.9490 -81.9360 247° West 444 511 34,000  Level FlightAware ADS-B
Wed 10:44:02 PM 39.9170 -82.0370 248° West 443 510 34,000  Level FlightAware ADS-B
Wed 10:44:42 PM 39.8850 -82.1380 248° West 442 509 34,000  Level FlightAware ADS-B
Wed 10:45:27 PM 39.8500 -82.2450 247° West 437 503 34,000  Level FlightAware ADS-B
Wed 10:46:07 PM 39.8190 -82.3420 247° West 437 503 34,000  Level FlightAware ADS-B
Wed 10:46:52 PM 39.7830 -82.4480 246° West 436 502 34,000  Level FlightAware ADS-B
Wed 10:47:32 PM 39.7520 -82.5450 247° West 434 499 34,000  Level FlightAware ADS-B
Wed 10:48:12 PM 39.7210 -82.6400 247° West 429 494 34,000  Level FlightAware ADS-B
Wed 10:48:57 PM 39.6850 -82.7460 246° West 429 494 34,000  Level FlightAware ADS-B
Wed 10:49:37 PM 39.6550 -82.8380 247° West 429 494 34,000  Level FlightAware ADS-B
Wed 10:50:17 PM 39.6240 -82.9320 247° West 428 493 34,000 -353 Level FlightAware ADS-B
Wed 10:51:02 PM 39.5880 -83.0380 246° West 423 487 33,500 -375 Descending FlightAware ADS-B
Wed 10:51:37 PM 39.5630 -83.1130 247° West 423 487 33,500 -2,329 Level FlightAware ADS-B
Wed 10:52:27 PM 39.5230 -83.2350 247° West 412 474 30,200 -2,333 Descending FlightAware ADS-B
Wed 10:53:07 PM 39.4920 -83.3280 247° West 410 472 30,000 -141 Descending FlightAware ADS-B
Wed 10:53:52 PM 39.4570 -83.4300 246° West 417 480 30,000  Level FlightAware ADS-B
Wed 10:54:32 PM 39.4260 -83.5220 246° West 421 484 30,000  Level FlightAware ADS-B
Wed 10:55:12 PM 39.3940 -83.6170 246° West 422 486 30,000  Level FlightAware ADS-B
Wed 10:55:57 PM 39.3600 -83.7160 246° West 421 484 30,000  Level FlightAware ADS-B
Wed 10:56:37 PM 39.3280 -83.8080 246° West 418 481 30,000  Level FlightAware ADS-B
Wed 10:57:22 PM 39.2920 -83.9140 246° West 415 478 30,000 -353 Level FlightAware ADS-B
Wed 10:58:02 PM 39.2610 -84.0050 246° West 411 473 29,500 -1,440 Descending FlightAware ADS-B
Wed 10:58:37 PM 39.2370 -84.0740 246° West 406 467 28,200 -975 Descending FlightAware ADS-B
Wed 10:59:22 PM 39.2050 -84.1660 246° West 406 467 28,200  Level FlightAware ADS-B
Wed 11:00:02 PM 39.1790 -84.2410 246° West 406 467 28,200  Level FlightAware ADS-B
Wed 11:00:52 PM 39.1470 -84.3350 246° West 406 467 28,200  Level FlightAware ADS-B
Wed 11:01:32 PM 39.1210 -84.4100 246° West 406 467 28,200  Level FlightAware ADS-B
Wed 11:02:12 PM 39.0950 -84.4860 246° West 406 467 28,200 -4,767 Level FlightAware ADS-B
Wed 11:02:45 PM 39.0561 -84.5917 246° West 381 438 22,400 -5,604 Descending Indianapolis Center
Wed 11:03:43 PM 39.0000 -84.7000 236° Southwest 379 436 19,700 -1,657 Descending Cincinnati TRACON
Wed 11:09:27 PM 38.5390 -85.1640 236° Southwest 330 380 11,300 -1,388 Descending FlightAware ADS-B
Wed 11:10:12 PM 38.4900 -85.2110 217° Southwest 310 357 10,700 -988 Descending FlightAware ADS-B
Wed 11:10:52 PM 38.4410 -85.2570 216° Southwest 293 337 9,900 -1,292 Descending FlightAware ADS-B
Wed 11:11:17 PM 38.4170 -85.2810 218° Southwest 292 336 9,300 -1,527 Descending FlightAware ADS-B
Wed 11:11:47 PM 38.3840 -85.3120 216° Southwest 290 334 8,500 -1,700 Descending FlightAware ADS-B
Wed 11:12:17 PM 38.3500 -85.3450 217° Southwest 287 330 7,600 -1,680 Descending FlightAware ADS-B
Wed 11:12:37 PM 38.3300 -85.3700 224° Southwest 283 326 7,100 -1,500 Descending FlightAware ADS-B
Wed 11:12:57 PM 38.3170 -85.3940 235° Southwest 280 322 6,600 -1,320 Descending FlightAware ADS-B
Wed 11:13:27 PM 38.2920 -85.4350 232° Southwest 271 312 6,000 -700 Descending FlightAware ADS-B
Wed 11:13:57 PM 38.2710 -85.4710 233° Southwest 244 281 5,900 -109 Descending FlightAware ADS-B
Wed 11:14:22 PM 38.2550 -85.5000 235° Southwest 235 270 5,900  Level FlightAware ADS-B
Wed 11:14:37 PM 38.2440 -85.5170 231° Southwest 232 267 5,900  Level FlightAware ADS-B
Wed 11:15:07 PM 38.2250 -85.5500 234° Southwest 230 265 5,900  Level FlightAware ADS-B
Wed 11:15:32 PM 38.2090 -85.5760 232° Southwest 230 265 5,900  Level FlightAware ADS-B
Wed 11:16:02 PM 38.1900 -85.6080 233° Southwest 226 260 5,900 -533 Level FlightAware ADS-B
Wed 11:16:17 PM 38.1800 -85.6250 233° Southwest 227 261 5,500 -1,200 Descending FlightAware ADS-B
Wed 11:16:42 PM 38.1650 -85.6510 234° Southwest 225 259 5,100 -720 Descending FlightAware ADS-B
Wed 11:17:07 PM 38.1460 -85.6740 224° Southwest 233 268 4,900 -300 Descending FlightAware ADS-B
Wed 11:17:22 PM 38.1330 -85.6790 197° South 239 275 4,900  Level FlightAware ADS-B
Wed 11:17:52 PM 38.1000 -85.6640 160° South 238 274 4,900  Level FlightAware ADS-B
Wed 11:18:07 PM 38.0860 -85.6490 140° Southeast 239 275 4,900  Level FlightAware ADS-B
Wed 11:18:22 PM 38.0770 -85.6330 126° Southeast 241 277 4,900 -600 Level FlightAware ADS-B
Wed 11:18:47 PM 38.0610 -85.6050 126° Southeast 237 273 4,500 -1,050 Descending FlightAware ADS-B
Wed 11:19:02 PM 38.0480 -85.5930 144° Southeast 238 274 4,200 -1,400 Descending FlightAware ADS-B
Wed 11:19:17 PM 38.0310 -85.5880 167° South 228 262 3,800 -1,350 Descending FlightAware ADS-B
Wed 11:19:42 PM 38.0110 -85.6020 209° Southwest 214 246 3,300 -1,050 Descending FlightAware ADS-B
Wed 11:19:57 PM 38.0070 -85.6180 252° West 201 231 3,100 -533 Descending FlightAware ADS-B
Wed 11:20:27 PM 38.0210 -85.6480 301° West 185 213 2,900 -267 Descending FlightAware ADS-B
Wed 11:20:42 PM 38.0290 -85.6590 313° West 184 212 2,900  Level FlightAware ADS-B
Wed 11:21:07 PM 38.0440 -85.6800 312° West 187 215 2,900 -450 Level FlightAware ADS-B
Wed 11:21:22 PM 38.0550 -85.6870 333° Northwest 180 207 2,600 -1,000 Descending FlightAware ADS-B
Wed 11:21:37 PM 38.0670 -85.6900 349° North 169 194 2,400 -800 Descending FlightAware ADS-B
Wed 11:22:07 PM 38.0880 -85.6970 345° North 140 161 2,000 -764 Descending FlightAware ADS-B
Wed 11:22:32 PM 38.1030 -85.7030 343° North 141 162 1,700 -764 Descending FlightAware ADS-B
Wed 11:23:02 PM 38.1210 -85.7090 345° North 141 162 1,300 -764 Descending FlightAware ADS-B
Wed 11:23:27 PM 38.1390 -85.7150 345° North 140 161 1,000 -750 Descending FlightAware ADS-B
Wed 11:23:42 PM 38.1470 -85.7180 344° North 141 162 800 -800 Descending FlightAware ADS-B
Wed 11:24:12 PM 38.1660 -85.7240 346° North 141 162 400 -436 Descending FlightAware ADS-B
Wed 11:24:37 PM 38.1810 -85.7290 345° North 141 162 400  Level FlightAware ADS-B

Login

Don't have an account? Register now (free) for customized features, flight alerts, and more!